sensor_id;sensor_type;location;lat;lon;timestamp;P1;durP1;ratioP1;P2;durP2;ratioP2
77246;SDS011;66279;42.820;23.374;2023-02-27T00:00:25;5.22;;;2.47;;
77246;SDS011;66279;42.820;23.374;2023-02-27T00:02:51;5.45;;;2.30;;
77246;SDS011;66279;42.820;23.374;2023-02-27T00:05:17;12.95;;;8.68;;
77246;SDS011;66279;42.820;23.374;2023-02-27T00:07:44;7.63;;;5.57;;
77246;SDS011;66279;42.820;23.374;2023-02-27T00:10:10;8.57;;;6.95;;
77246;SDS011;66279;42.820;23.374;2023-02-27T00:12:37;11.25;;;7.82;;
77246;SDS011;66279;42.820;23.374;2023-02-27T00:15:13;10.48;;;5.88;;
77246;SDS011;66279;42.820;23.374;2023-02-27T00:17:40;22.02;;;9.90;;
77246;SDS011;66279;42.820;23.374;2023-02-27T00:20:07;13.38;;;6.15;;
77246;SDS011;66279;42.820;23.374;2023-02-27T00:22:37;16.20;;;7.85;;
77246;SDS011;66279;42.820;23.374;2023-02-27T00:25:04;12.40;;;3.33;;
77246;SDS011;66279;42.820;23.374;2023-02-27T00:27:30;6.75;;;3.33;;
77246;SDS011;66279;42.820;23.374;2023-02-27T00:29:57;6.13;;;3.10;;
77246;SDS011;66279;42.820;23.374;2023-02-27T00:32:23;13.48;;;3.30;;
77246;SDS011;66279;42.820;23.374;2023-02-27T00:34:48;6.68;;;3.97;;
77246;SDS011;66279;42.820;23.374;2023-02-27T00:37:14;10.88;;;3.95;;
77246;SDS011;66279;42.820;23.374;2023-02-27T00:39:40;7.85;;;3.53;;
77246;SDS011;66279;42.820;23.374;2023-02-27T00:42:05;12.10;;;5.20;;
77246;SDS011;66279;42.820;23.374;2023-02-27T00:44:31;9.60;;;4.78;;
77246;SDS011;66279;42.820;23.374;2023-02-27T00:46:56;9.38;;;3.95;;
77246;SDS011;66279;42.820;23.374;2023-02-27T00:49:22;9.05;;;4.22;;
77246;SDS011;66279;42.820;23.374;2023-02-27T00:51:49;16.10;;;6.70;;
77246;SDS011;66279;42.820;23.374;2023-02-27T00:54:15;17.85;;;7.63;;
77246;SDS011;66279;42.820;23.374;2023-02-27T00:56:40;11.15;;;5.35;;
77246;SDS011;66279;42.820;23.374;2023-02-27T00:59:06;8.93;;;3.67;;
77246;SDS011;66279;42.820;23.374;2023-02-27T01:01:32;15.60;;;7.18;;
77246;SDS011;66279;42.820;23.374;2023-02-27T01:03:57;8.25;;;3.78;;
77246;SDS011;66279;42.820;23.374;2023-02-27T01:06:23;5.55;;;3.25;;
77246;SDS011;66279;42.820;23.374;2023-02-27T01:08:48;10.63;;;3.42;;
77246;SDS011;66279;42.820;23.374;2023-02-27T01:11:14;12.75;;;4.75;;
77246;SDS011;66279;42.820;23.374;2023-02-27T01:13:39;5.93;;;3.10;;
77246;SDS011;66279;42.820;23.374;2023-02-27T01:16:05;14.13;;;5.13;;
77246;SDS011;66279;42.820;23.374;2023-02-27T01:18:32;9.48;;;4.13;;
77246;SDS011;66279;42.820;23.374;2023-02-27T01:20:58;10.60;;;3.28;;
77246;SDS011;66279;42.820;23.374;2023-02-27T01:23:23;10.85;;;3.90;;
77246;SDS011;66279;42.820;23.374;2023-02-27T01:25:49;8.10;;;3.05;;
77246;SDS011;66279;42.820;23.374;2023-02-27T01:28:14;7.07;;;2.40;;
77246;SDS011;66279;42.820;23.374;2023-02-27T01:30:41;11.70;;;4.45;;
77246;SDS011;66279;42.820;23.374;2023-02-27T01:33:07;11.27;;;4.13;;
77246;SDS011;66279;42.820;23.374;2023-02-27T01:35:33;11.95;;;5.72;;
77246;SDS011;66279;42.820;23.374;2023-02-27T01:37:58;11.98;;;5.38;;
77246;SDS011;66279;42.820;23.374;2023-02-27T01:40:24;49.42;;;23.23;;
77246;SDS011;66279;42.820;23.374;2023-02-27T01:42:49;41.15;;;18.75;;
77246;SDS011;66279;42.820;23.374;2023-02-27T01:51:12;12.32;;;4.13;;
77246;SDS011;66279;42.820;23.374;2023-02-27T01:53:43;8.48;;;3.78;;
77246;SDS011;66279;42.820;23.374;2023-02-27T01:56:13;34.45;;;14.88;;
77246;SDS011;66279;42.820;23.374;2023-02-27T01:58:41;32.72;;;14.00;;
77246;SDS011;66279;42.820;23.374;2023-02-27T02:01:07;28.52;;;12.40;;
77246;SDS011;66279;42.820;23.374;2023-02-27T02:04:34;14.88;;;7.00;;
77246;SDS011;66279;42.820;23.374;2023-02-27T02:06:36;23.17;;;11.15;;
77246;SDS011;66279;42.820;23.374;2023-02-27T02:09:04;31.38;;;12.85;;
77246;SDS011;66279;42.820;23.374;2023-02-27T02:11:31;35.15;;;14.90;;
77246;SDS011;66279;42.820;23.374;2023-02-27T02:13:58;32.67;;;13.85;;
77246;SDS011;66279;42.820;23.374;2023-02-27T02:19:06;4.03;;;2.13;;
77246;SDS011;66279;42.820;23.374;2023-02-27T02:47:05;3.17;;;1.48;;
77246;SDS011;66279;42.820;23.374;2023-02-27T02:49:48;3.72;;;1.60;;
77246;SDS011;66279;42.820;23.374;2023-02-27T02:52:24;2.65;;;1.70;;
77246;SDS011;66279;42.820;23.374;2023-02-27T02:55:06;3.05;;;2.17;;
77246;SDS011;66279;42.820;23.374;2023-02-27T02:57:42;6.13;;;3.42;;
77246;SDS011;66279;42.820;23.374;2023-02-27T03:00:17;6.03;;;3.88;;
77246;SDS011;66279;42.820;23.374;2023-02-27T03:02:47;11.50;;;6.80;;
77246;SDS011;66279;42.820;23.374;2023-02-27T03:05:40;3.47;;;1.98;;
77246;SDS011;66279;42.820;23.374;2023-02-27T03:08:07;2.33;;;1.42;;
77246;SDS011;66279;42.820;23.374;2023-02-27T03:11:09;2.92;;;1.55;;
77246;SDS011;66279;42.820;23.374;2023-02-27T03:13:29;5.38;;;2.38;;
77246;SDS011;66279;42.820;23.374;2023-02-27T03:16:01;3.20;;;1.70;;
77246;SDS011;66279;42.820;23.374;2023-02-27T03:18:40;1.98;;;1.52;;
77246;SDS011;66279;42.820;23.374;2023-02-27T03:21:17;2.28;;;1.63;;
77246;SDS011;66279;42.820;23.374;2023-02-27T03:23:49;2.10;;;1.15;;
77246;SDS011;66279;42.820;23.374;2023-02-27T03:26:18;1.40;;;1.20;;
77246;SDS011;66279;42.820;23.374;2023-02-27T03:28:58;2.20;;;1.30;;
77246;SDS011;66279;42.820;23.374;2023-02-27T03:34:48;1.73;;;1.20;;
77246;SDS011;66279;42.820;23.374;2023-02-27T03:37:08;2.80;;;1.40;;
77246;SDS011;66279;42.820;23.374;2023-02-27T03:42:28;1.10;;;0.93;;
77246;SDS011;66279;42.820;23.374;2023-02-27T03:45:07;2.20;;;0.93;;
77246;SDS011;66279;42.820;23.374;2023-02-27T03:47:45;1.63;;;0.98;;
77246;SDS011;66279;42.820;23.374;2023-02-27T03:50:11;1.30;;;1.00;;
77246;SDS011;66279;42.820;23.374;2023-02-27T03:52:36;2.40;;;1.55;;
77246;SDS011;66279;42.820;23.374;2023-02-27T03:55:10;1.70;;;1.23;;
77246;SDS011;66279;42.820;23.374;2023-02-27T03:57:40;2.25;;;1.42;;
77246;SDS011;66279;42.820;23.374;2023-02-27T04:00:08;2.22;;;1.60;;
77246;SDS011;66279;42.820;23.374;2023-02-27T04:02:36;1.77;;;1.15;;
77246;SDS011;66279;42.820;23.374;2023-02-27T04:05:03;1.27;;;0.95;;
77246;SDS011;66279;42.820;23.374;2023-02-27T04:10:37;1.23;;;0.90;;
77246;SDS011;66279;42.820;23.374;2023-02-27T04:13:43;1.20;;;0.90;;
77246;SDS011;66279;42.820;23.374;2023-02-27T04:16:34;1.75;;;1.25;;
77246;SDS011;66279;42.820;23.374;2023-02-27T04:19:21;1.70;;;1.17;;
77246;SDS011;66279;42.820;23.374;2023-02-27T04:30:38;1.20;;;0.82;;
77246;SDS011;66279;42.820;23.374;2023-02-27T04:35:58;2.08;;;1.35;;
77246;SDS011;66279;42.820;23.374;2023-02-27T04:38:33;1.02;;;0.70;;
77246;SDS011;66279;42.820;23.374;2023-02-27T04:41:20;1.10;;;0.82;;
77246;SDS011;66279;42.820;23.374;2023-02-27T04:43:52;1.38;;;1.10;;
77246;SDS011;66279;42.820;23.374;2023-02-27T04:46:19;1.85;;;1.20;;
77246;SDS011;66279;42.820;23.374;2023-02-27T04:51:23;1.42;;;1.17;;
77246;SDS011;66279;42.820;23.374;2023-02-27T04:56:24;2.03;;;1.52;;
77246;SDS011;66279;42.820;23.374;2023-02-27T04:58:58;2.15;;;1.75;;
77246;SDS011;66279;42.820;23.374;2023-02-27T05:01:40;2.28;;;1.27;;
77246;SDS011;66279;42.820;23.374;2023-02-27T05:04:10;2.53;;;2.00;;
77246;SDS011;66279;42.820;23.374;2023-02-27T05:06:40;2.70;;;1.83;;
77246;SDS011;66279;42.820;23.374;2023-02-27T05:09:13;2.00;;;1.45;;
77246;SDS011;66279;42.820;23.374;2023-02-27T05:11:55;1.92;;;1.70;;
77246;SDS011;66279;42.820;23.374;2023-02-27T05:14:33;2.90;;;2.60;;
77246;SDS011;66279;42.820;23.374;2023-02-27T05:19:44;2.10;;;1.60;;
77246;SDS011;66279;42.820;23.374;2023-02-27T05:27:38;11.23;;;7.75;;
77246;SDS011;66279;42.820;23.374;2023-02-27T05:30:17;5.18;;;3.15;;
77246;SDS011;66279;42.820;23.374;2023-02-27T05:33:00;3.95;;;3.03;;
77246;SDS011;66279;42.820;23.374;2023-02-27T05:35:41;3.72;;;2.35;;
77246;SDS011;66279;42.820;23.374;2023-02-27T05:38:20;7.75;;;4.18;;
77246;SDS011;66279;42.820;23.374;2023-02-27T05:41:51;6.47;;;4.07;;
77246;SDS011;66279;42.820;23.374;2023-02-27T05:44:21;13.20;;;6.90;;
77246;SDS011;66279;42.820;23.374;2023-02-27T05:46:52;8.50;;;5.20;;
77246;SDS011;66279;42.820;23.374;2023-02-27T05:49:24;3.25;;;2.72;;
77246;SDS011;66279;42.820;23.374;2023-02-27T05:51:56;11.77;;;6.63;;
77246;SDS011;66279;42.820;23.374;2023-02-27T05:54:32;11.10;;;6.55;;
77246;SDS011;66279;42.820;23.374;2023-02-27T05:56:58;7.75;;;5.13;;
77246;SDS011;66279;42.820;23.374;2023-02-27T05:59:30;7.50;;;4.05;;
77246;SDS011;66279;42.820;23.374;2023-02-27T06:01:59;6.53;;;3.65;;
77246;SDS011;66279;42.820;23.374;2023-02-27T06:04:25;3.40;;;2.40;;
77246;SDS011;66279;42.820;23.374;2023-02-27T06:06:51;3.30;;;2.05;;
77246;SDS011;66279;42.820;23.374;2023-02-27T06:09:17;7.72;;;4.65;;
77246;SDS011;66279;42.820;23.374;2023-02-27T06:11:42;7.00;;;4.57;;
77246;SDS011;66279;42.820;23.374;2023-02-27T06:14:08;4.70;;;3.33;;
77246;SDS011;66279;42.820;23.374;2023-02-27T06:16:33;3.03;;;2.45;;
77246;SDS011;66279;42.820;23.374;2023-02-27T06:19:02;3.13;;;2.42;;
77246;SDS011;66279;42.820;23.374;2023-02-27T06:21:28;4.18;;;3.33;;
77246;SDS011;66279;42.820;23.374;2023-02-27T06:23:53;4.07;;;3.70;;
77246;SDS011;66279;42.820;23.374;2023-02-27T06:26:19;3.90;;;3.42;;
77246;SDS011;66279;42.820;23.374;2023-02-27T06:28:45;3.17;;;2.88;;
77246;SDS011;66279;42.820;23.374;2023-02-27T06:31:10;3.15;;;2.50;;
77246;SDS011;66279;42.820;23.374;2023-02-27T06:33:36;2.78;;;2.33;;
77246;SDS011;66279;42.820;23.374;2023-02-27T06:36:01;2.88;;;2.58;;
77246;SDS011;66279;42.820;23.374;2023-02-27T06:38:27;3.55;;;2.92;;
77246;SDS011;66279;42.820;23.374;2023-02-27T06:40:53;3.72;;;3.15;;
77246;SDS011;66279;42.820;23.374;2023-02-27T06:43:19;4.40;;;3.45;;
77246;SDS011;66279;42.820;23.374;2023-02-27T06:45:47;4.30;;;2.65;;
77246;SDS011;66279;42.820;23.374;2023-02-27T06:48:13;5.68;;;3.70;;
77246;SDS011;66279;42.820;23.374;2023-02-27T06:50:39;6.25;;;4.07;;
77246;SDS011;66279;42.820;23.374;2023-02-27T06:53:05;7.80;;;5.15;;
77246;SDS011;66279;42.820;23.374;2023-02-27T06:55:31;5.80;;;3.63;;
77246;SDS011;66279;42.820;23.374;2023-02-27T06:57:57;6.85;;;4.47;;
77246;SDS011;66279;42.820;23.374;2023-02-27T07:00:22;4.30;;;3.50;;
77246;SDS011;66279;42.820;23.374;2023-02-27T07:02:48;3.10;;;2.72;;
77246;SDS011;66279;42.820;23.374;2023-02-27T07:05:14;3.33;;;2.90;;
77246;SDS011;66279;42.820;23.374;2023-02-27T07:07:39;4.18;;;3.08;;
77246;SDS011;66279;42.820;23.374;2023-02-27T07:10:14;3.28;;;2.97;;
77246;SDS011;66279;42.820;23.374;2023-02-27T07:12:39;3.20;;;2.65;;
77246;SDS011;66279;42.820;23.374;2023-02-27T07:15:06;2.67;;;2.13;;
77246;SDS011;66279;42.820;23.374;2023-02-27T07:17:32;2.78;;;2.35;;
77246;SDS011;66279;42.820;23.374;2023-02-27T07:19:58;2.60;;;2.28;;
77246;SDS011;66279;42.820;23.374;2023-02-27T07:22:23;3.72;;;2.15;;
77246;SDS011;66279;42.820;23.374;2023-02-27T07:24:49;2.85;;;2.65;;
77246;SDS011;66279;42.820;23.374;2023-02-27T07:27:14;3.92;;;3.50;;
77246;SDS011;66279;42.820;23.374;2023-02-27T07:29:40;3.40;;;3.10;;
77246;SDS011;66279;42.820;23.374;2023-02-27T07:32:06;3.15;;;2.60;;
77246;SDS011;66279;42.820;23.374;2023-02-27T07:34:31;3.47;;;3.08;;
77246;SDS011;66279;42.820;23.374;2023-02-27T07:36:57;3.10;;;2.80;;
77246;SDS011;66279;42.820;23.374;2023-02-27T07:39:23;4.45;;;4.05;;
77246;SDS011;66279;42.820;23.374;2023-02-27T07:41:48;4.13;;;3.72;;
77246;SDS011;66279;42.820;23.374;2023-02-27T07:44:14;3.75;;;3.40;;
77246;SDS011;66279;42.820;23.374;2023-02-27T07:46:39;6.50;;;4.93;;
77246;SDS011;66279;42.820;23.374;2023-02-27T07:49:04;4.65;;;4.22;;
77246;SDS011;66279;42.820;23.374;2023-02-27T07:51:30;3.45;;;3.00;;
77246;SDS011;66279;42.820;23.374;2023-02-27T07:53:56;5.38;;;3.67;;
77246;SDS011;66279;42.820;23.374;2023-02-27T07:56:22;3.40;;;3.05;;
77246;SDS011;66279;42.820;23.374;2023-02-27T07:58:48;3.58;;;2.97;;
77246;SDS011;66279;42.820;23.374;2023-02-27T08:01:14;2.83;;;2.42;;
77246;SDS011;66279;42.820;23.374;2023-02-27T08:03:39;3.20;;;2.70;;
77246;SDS011;66279;42.820;23.374;2023-02-27T08:06:05;5.45;;;3.30;;
77246;SDS011;66279;42.820;23.374;2023-02-27T08:08:31;4.25;;;3.85;;
77246;SDS011;66279;42.820;23.374;2023-02-27T08:10:57;3.13;;;2.28;;
77246;SDS011;66279;42.820;23.374;2023-02-27T08:13:22;2.85;;;2.65;;
77246;SDS011;66279;42.820;23.374;2023-02-27T08:15:48;2.42;;;2.22;;
77246;SDS011;66279;42.820;23.374;2023-02-27T08:18:14;2.47;;;2.25;;
77246;SDS011;66279;42.820;23.374;2023-02-27T08:20:39;3.88;;;3.40;;
77246;SDS011;66279;42.820;23.374;2023-02-27T08:23:05;4.57;;;4.13;;
77246;SDS011;66279;42.820;23.374;2023-02-27T08:25:31;6.10;;;4.70;;
77246;SDS011;66279;42.820;23.374;2023-02-27T08:27:57;4.60;;;2.92;;
77246;SDS011;66279;42.820;23.374;2023-02-27T08:30:22;4.80;;;3.00;;
77246;SDS011;66279;42.820;23.374;2023-02-27T08:32:48;2.97;;;2.47;;
77246;SDS011;66279;42.820;23.374;2023-02-27T08:35:13;3.15;;;2.55;;
77246;SDS011;66279;42.820;23.374;2023-02-27T08:37:39;3.92;;;3.10;;
77246;SDS011;66279;42.820;23.374;2023-02-27T08:40:05;3.30;;;2.92;;
77246;SDS011;66279;42.820;23.374;2023-02-27T08:42:32;4.57;;;3.70;;
77246;SDS011;66279;42.820;23.374;2023-02-27T08:44:58;2.30;;;2.10;;
77246;SDS011;66279;42.820;23.374;2023-02-27T08:47:24;2.70;;;2.50;;
77246;SDS011;66279;42.820;23.374;2023-02-27T08:49:49;2.67;;;2.20;;
77246;SDS011;66279;42.820;23.374;2023-02-27T08:52:15;2.70;;;2.42;;
77246;SDS011;66279;42.820;23.374;2023-02-27T08:54:41;4.40;;;2.15;;
77246;SDS011;66279;42.820;23.374;2023-02-27T08:57:06;2.33;;;2.13;;
77246;SDS011;66279;42.820;23.374;2023-02-27T08:59:32;3.67;;;3.38;;
77246;SDS011;66279;42.820;23.374;2023-02-27T09:01:57;2.42;;;2.22;;
77246;SDS011;66279;42.820;23.374;2023-02-27T09:04:23;3.10;;;2.80;;
77246;SDS011;66279;42.820;23.374;2023-02-27T09:06:48;2.92;;;2.67;;
77246;SDS011;66279;42.820;23.374;2023-02-27T09:09:14;2.67;;;2.45;;
77246;SDS011;66279;42.820;23.374;2023-02-27T09:11:39;6.40;;;5.90;;
77246;SDS011;66279;42.820;23.374;2023-02-27T09:14:05;4.00;;;3.10;;
77246;SDS011;66279;42.820;23.374;2023-02-27T09:16:30;2.53;;;2.15;;
77246;SDS011;66279;42.820;23.374;2023-02-27T09:18:56;2.20;;;2.00;;
77246;SDS011;66279;42.820;23.374;2023-02-27T09:21:22;2.83;;;1.73;;
77246;SDS011;66279;42.820;23.374;2023-02-27T09:23:49;2.47;;;2.15;;
77246;SDS011;66279;42.820;23.374;2023-02-27T09:26:15;2.60;;;2.38;;
77246;SDS011;66279;42.820;23.374;2023-02-27T09:28:41;3.13;;;2.70;;
77246;SDS011;66279;42.820;23.374;2023-02-27T09:31:07;3.25;;;2.13;;
77246;SDS011;66279;42.820;23.374;2023-02-27T09:33:33;2.38;;;2.03;;
77246;SDS011;66279;42.820;23.374;2023-02-27T09:36:01;2.08;;;1.80;;
77246;SDS011;66279;42.820;23.374;2023-02-27T09:38:29;1.65;;;1.42;;
77246;SDS011;66279;42.820;23.374;2023-02-27T09:40:56;1.92;;;1.73;;
77246;SDS011;66279;42.820;23.374;2023-02-27T09:43:25;3.22;;;1.75;;
77246;SDS011;66279;42.820;23.374;2023-02-27T09:46:05;2.30;;;2.10;;
77246;SDS011;66279;42.820;23.374;2023-02-27T09:48:33;1.77;;;1.55;;
77246;SDS011;66279;42.820;23.374;2023-02-27T09:51:06;2.72;;;2.15;;
77246;SDS011;66279;42.820;23.374;2023-02-27T09:56:13;3.10;;;2.83;;
77246;SDS011;66279;42.820;23.374;2023-02-27T09:58:46;2.10;;;1.90;;
77246;SDS011;66279;42.820;23.374;2023-02-27T10:01:42;3.08;;;2.10;;
77246;SDS011;66279;42.820;23.374;2023-02-27T10:04:24;4.38;;;1.73;;
77246;SDS011;66279;42.820;23.374;2023-02-27T10:09:55;2.20;;;2.00;;
77246;SDS011;66279;42.820;23.374;2023-02-27T10:12:33;1.88;;;1.63;;
77246;SDS011;66279;42.820;23.374;2023-02-27T10:17:42;2.55;;;1.52;;
77246;SDS011;66279;42.820;23.374;2023-02-27T10:23:19;3.38;;;2.67;;
77246;SDS011;66279;42.820;23.374;2023-02-27T10:25:57;2.35;;;1.88;;
77246;SDS011;66279;42.820;23.374;2023-02-27T10:28:24;3.72;;;2.30;;
77246;SDS011;66279;42.820;23.374;2023-02-27T10:30:51;3.22;;;2.00;;
77246;SDS011;66279;42.820;23.374;2023-02-27T10:33:26;2.10;;;1.90;;
77246;SDS011;66279;42.820;23.374;2023-02-27T10:35:57;2.10;;;1.70;;
77246;SDS011;66279;42.820;23.374;2023-02-27T10:40:59;1.92;;;1.70;;
77246;SDS011;66279;42.820;23.374;2023-02-27T10:43:26;2.10;;;1.90;;
77246;SDS011;66279;42.820;23.374;2023-02-27T10:45:52;2.05;;;1.65;;
77246;SDS011;66279;42.820;23.374;2023-02-27T10:48:18;2.20;;;1.77;;
77246;SDS011;66279;42.820;23.374;2023-02-27T10:50:45;2.90;;;1.67;;
77246;SDS011;66279;42.820;23.374;2023-02-27T10:55:49;5.70;;;5.10;;
77246;SDS011;66279;42.820;23.374;2023-02-27T10:58:30;2.40;;;2.20;;
77246;SDS011;66279;42.820;23.374;2023-02-27T11:00:59;3.40;;;3.10;;
77246;SDS011;66279;42.820;23.374;2023-02-27T11:03:32;2.28;;;2.08;;
77246;SDS011;66279;42.820;23.374;2023-02-27T11:06:01;2.33;;;2.13;;
77246;SDS011;66279;42.820;23.374;2023-02-27T11:08:31;5.13;;;3.40;;
77246;SDS011;66279;42.820;23.374;2023-02-27T11:11:16;3.50;;;2.95;;
77246;SDS011;66279;42.820;23.374;2023-02-27T11:13:51;3.45;;;2.78;;
77246;SDS011;66279;42.820;23.374;2023-02-27T11:16:18;2.25;;;2.05;;
77246;SDS011;66279;42.820;23.374;2023-02-27T11:18:48;2.40;;;2.20;;
77246;SDS011;66279;42.820;23.374;2023-02-27T11:21:20;7.18;;;5.78;;
77246;SDS011;66279;42.820;23.374;2023-02-27T11:31:42;2.15;;;1.83;;
77246;SDS011;66279;42.820;23.374;2023-02-27T11:34:34;2.70;;;2.50;;
77246;SDS011;66279;42.820;23.374;2023-02-27T11:37:06;2.72;;;1.80;;
77246;SDS011;66279;42.820;23.374;2023-02-27T11:39:51;2.55;;;2.20;;
77246;SDS011;66279;42.820;23.374;2023-02-27T11:45:02;2.08;;;1.80;;
77246;SDS011;66279;42.820;23.374;2023-02-27T11:47:35;2.67;;;2.28;;
77246;SDS011;66279;42.820;23.374;2023-02-27T11:50:09;3.72;;;2.67;;
77246;SDS011;66279;42.820;23.374;2023-02-27T11:53:31;3.10;;;2.75;;
77246;SDS011;66279;42.820;23.374;2023-02-27T11:56:08;2.60;;;2.40;;
77246;SDS011;66279;42.820;23.374;2023-02-27T11:58:38;2.22;;;2.03;;
77246;SDS011;66279;42.820;23.374;2023-02-27T12:01:14;2.22;;;2.00;;
77246;SDS011;66279;42.820;23.374;2023-02-27T12:04:03;4.43;;;2.20;;
77246;SDS011;66279;42.820;23.374;2023-02-27T12:06:41;3.08;;;2.78;;
77246;SDS011;66279;42.820;23.374;2023-02-27T12:09:27;3.05;;;2.75;;
77246;SDS011;66279;42.820;23.374;2023-02-27T12:12:20;2.97;;;2.67;;
77246;SDS011;66279;42.820;23.374;2023-02-27T12:14:51;2.42;;;2.22;;
77246;SDS011;66279;42.820;23.374;2023-02-27T12:17:42;3.22;;;2.70;;
77246;SDS011;66279;42.820;23.374;2023-02-27T12:22:56;1.42;;;1.33;;
77246;SDS011;66279;42.820;23.374;2023-02-27T12:28:30;2.72;;;1.55;;
77246;SDS011;66279;42.820;23.374;2023-02-27T12:34:03;3.10;;;1.60;;
77246;SDS011;66279;42.820;23.374;2023-02-27T12:36:53;1.73;;;1.63;;
77246;SDS011;66279;42.820;23.374;2023-02-27T12:39:25;2.22;;;1.80;;
77246;SDS011;66279;42.820;23.374;2023-02-27T12:44:53;1.52;;;1.42;;
77246;SDS011;66279;42.820;23.374;2023-02-27T12:50:04;2.53;;;1.73;;
77246;SDS011;66279;42.820;23.374;2023-02-27T12:55:18;1.83;;;1.40;;
77246;SDS011;66279;42.820;23.374;2023-02-27T13:01:09;2.92;;;2.63;;
77246;SDS011;66279;42.820;23.374;2023-02-27T13:03:38;1.73;;;1.48;;
77246;SDS011;66279;42.820;23.374;2023-02-27T13:08:39;3.38;;;2.10;;
77246;SDS011;66279;42.820;23.374;2023-02-27T13:14:22;2.67;;;2.40;;
77246;SDS011;66279;42.820;23.374;2023-02-27T13:16:55;3.75;;;2.50;;
77246;SDS011;66279;42.820;23.374;2023-02-27T13:19:49;2.88;;;2.38;;
77246;SDS011;66279;42.820;23.374;2023-02-27T13:22:31;2.65;;;2.17;;
77246;SDS011;66279;42.820;23.374;2023-02-27T13:25:03;2.10;;;1.90;;
77246;SDS011;66279;42.820;23.374;2023-02-27T13:27:41;4.40;;;2.08;;
77246;SDS011;66279;42.820;23.374;2023-02-27T13:43:46;3.38;;;1.88;;
77246;SDS011;66279;42.820;23.374;2023-02-27T13:46:23;2.28;;;2.08;;
77246;SDS011;66279;42.820;23.374;2023-02-27T13:56:37;5.18;;;3.15;;
77246;SDS011;66279;42.820;23.374;2023-02-27T13:59:28;8.25;;;6.43;;
77246;SDS011;66279;42.820;23.374;2023-02-27T14:01:55;4.68;;;4.18;;
77246;SDS011;66279;42.820;23.374;2023-02-27T14:04:22;3.75;;;3.45;;
77246;SDS011;66279;42.820;23.374;2023-02-27T14:06:50;3.80;;;3.45;;
77246;SDS011;66279;42.820;23.374;2023-02-27T14:09:23;5.22;;;2.45;;
77246;SDS011;66279;42.820;23.374;2023-02-27T14:11:51;2.95;;;1.92;;
77246;SDS011;66279;42.820;23.374;2023-02-27T14:14:36;3.15;;;1.90;;
77246;SDS011;66279;42.820;23.374;2023-02-27T14:17:12;3.33;;;1.80;;
77246;SDS011;66279;42.820;23.374;2023-02-27T14:19:58;2.65;;;1.80;;
77246;SDS011;66279;42.820;23.374;2023-02-27T14:22:35;2.72;;;1.98;;
77246;SDS011;66279;42.820;23.374;2023-02-27T14:25:12;3.30;;;2.20;;
77246;SDS011;66279;42.820;23.374;2023-02-27T14:30:20;3.65;;;2.45;;
77246;SDS011;66279;42.820;23.374;2023-02-27T14:32:50;3.60;;;2.20;;
77246;SDS011;66279;42.820;23.374;2023-02-27T14:35:23;2.88;;;2.20;;
77246;SDS011;66279;42.820;23.374;2023-02-27T14:37:50;5.43;;;2.97;;
77246;SDS011;66279;42.820;23.374;2023-02-27T14:40:38;3.38;;;2.38;;
77246;SDS011;66279;42.820;23.374;2023-02-27T14:51:17;1.88;;;1.55;;
77246;SDS011;66279;42.820;23.374;2023-02-27T14:53:42;3.50;;;2.47;;
77246;SDS011;66279;42.820;23.374;2023-02-27T14:56:14;1.92;;;1.63;;
77246;SDS011;66279;42.820;23.374;2023-02-27T14:58:45;1.58;;;1.42;;
77246;SDS011;66279;42.820;23.374;2023-02-27T15:01:12;2.30;;;1.83;;
77246;SDS011;66279;42.820;23.374;2023-02-27T15:03:48;1.92;;;1.73;;
77246;SDS011;66279;42.820;23.374;2023-02-27T15:08:50;2.17;;;1.67;;
77246;SDS011;66279;42.820;23.374;2023-02-27T15:11:19;2.60;;;1.90;;
77246;SDS011;66279;42.820;23.374;2023-02-27T15:13:47;2.50;;;1.73;;
77246;SDS011;66279;42.820;23.374;2023-02-27T15:18:49;3.22;;;1.85;;
77246;SDS011;66279;42.820;23.374;2023-02-27T15:21:21;2.50;;;2.30;;
77246;SDS011;66279;42.820;23.374;2023-02-27T15:26:21;2.47;;;2.20;;
77246;SDS011;66279;42.820;23.374;2023-02-27T15:28:47;3.70;;;2.65;;
77246;SDS011;66279;42.820;23.374;2023-02-27T15:31:17;2.88;;;2.67;;
77246;SDS011;66279;42.820;23.374;2023-02-27T15:33:45;3.97;;;3.58;;
77246;SDS011;66279;42.820;23.374;2023-02-27T15:36:18;4.30;;;3.83;;
77246;SDS011;66279;42.820;23.374;2023-02-27T15:41:51;2.35;;;2.15;;
77246;SDS011;66279;42.820;23.374;2023-02-27T15:44:35;2.00;;;1.77;;
77246;SDS011;66279;42.820;23.374;2023-02-27T15:47:05;2.53;;;2.10;;
77246;SDS011;66279;42.820;23.374;2023-02-27T15:49:31;2.63;;;1.98;;
77246;SDS011;66279;42.820;23.374;2023-02-27T15:52:04;2.22;;;2.03;;
77246;SDS011;66279;42.820;23.374;2023-02-27T15:54:36;1.50;;;1.40;;
77246;SDS011;66279;42.820;23.374;2023-02-27T15:57:11;2.25;;;1.95;;
77246;SDS011;66279;42.820;23.374;2023-02-27T15:59:39;2.55;;;2.35;;
77246;SDS011;66279;42.820;23.374;2023-02-27T16:02:11;2.97;;;2.58;;
77246;SDS011;66279;42.820;23.374;2023-02-27T16:04:48;2.38;;;2.00;;
77246;SDS011;66279;42.820;23.374;2023-02-27T16:07:15;3.08;;;2.15;;
77246;SDS011;66279;42.820;23.374;2023-02-27T16:09:50;3.20;;;2.88;;
77246;SDS011;66279;42.820;23.374;2023-02-27T16:14:51;11.23;;;9.82;;
77246;SDS011;66279;42.820;23.374;2023-02-27T16:17:27;2.95;;;2.25;;
77246;SDS011;66279;42.820;23.374;2023-02-27T16:19:56;2.20;;;2.00;;
77246;SDS011;66279;42.820;23.374;2023-02-27T16:22:23;2.97;;;2.20;;
77246;SDS011;66279;42.820;23.374;2023-02-27T16:24:49;2.15;;;1.85;;
77246;SDS011;66279;42.820;23.374;2023-02-27T16:29:47;2.47;;;2.20;;
77246;SDS011;66279;42.820;23.374;2023-02-27T16:35:00;1.98;;;1.75;;
77246;SDS011;66279;42.820;23.374;2023-02-27T16:37:33;2.30;;;2.10;;
77246;SDS011;66279;42.820;23.374;2023-02-27T16:40:00;13.93;;;12.63;;
77246;SDS011;66279;42.820;23.374;2023-02-27T16:42:26;16.25;;;14.80;;
77246;SDS011;66279;42.820;23.374;2023-02-27T16:44:51;5.53;;;5.03;;
77246;SDS011;66279;42.820;23.374;2023-02-27T16:47:17;3.00;;;2.72;;
77246;SDS011;66279;42.820;23.374;2023-02-27T16:49:42;2.30;;;2.10;;
77246;SDS011;66279;42.820;23.374;2023-02-27T16:52:10;1.65;;;1.45;;
77246;SDS011;66279;42.820;23.374;2023-02-27T16:54:36;3.83;;;2.97;;
77246;SDS011;66279;42.820;23.374;2023-02-27T16:57:01;3.28;;;2.70;;
77246;SDS011;66279;42.820;23.374;2023-02-27T16:59:34;3.20;;;2.90;;
77246;SDS011;66279;42.820;23.374;2023-02-27T17:02:04;2.83;;;2.55;;
77246;SDS011;66279;42.820;23.374;2023-02-27T17:04:31;2.30;;;2.08;;
77246;SDS011;66279;42.820;23.374;2023-02-27T17:09:27;1.92;;;1.17;;
77246;SDS011;66279;42.820;23.374;2023-02-27T17:11:54;3.10;;;2.47;;
77246;SDS011;66279;42.820;23.374;2023-02-27T17:14:21;8.38;;;7.50;;
77246;SDS011;66279;42.820;23.374;2023-02-27T17:16:47;11.35;;;9.23;;
77246;SDS011;66279;42.820;23.374;2023-02-27T17:19:12;12.32;;;10.45;;
77246;SDS011;66279;42.820;23.374;2023-02-27T17:21:38;2.63;;;2.38;;
77246;SDS011;66279;42.820;23.374;2023-02-27T17:24:04;2.95;;;2.75;;
77246;SDS011;66279;42.820;23.374;2023-02-27T17:26:30;3.15;;;2.85;;
77246;SDS011;66279;42.820;23.374;2023-02-27T17:28:56;3.97;;;3.40;;
77246;SDS011;66279;42.820;23.374;2023-02-27T17:31:22;3.22;;;2.92;;
77246;SDS011;66279;42.820;23.374;2023-02-27T17:33:49;6.30;;;4.80;;
77246;SDS011;66279;42.820;23.374;2023-02-27T17:36:15;5.60;;;4.82;;
77246;SDS011;66279;42.820;23.374;2023-02-27T17:38:41;6.28;;;5.38;;
77246;SDS011;66279;42.820;23.374;2023-02-27T17:41:07;5.70;;;5.20;;
77246;SDS011;66279;42.820;23.374;2023-02-27T17:43:34;6.25;;;5.65;;
77246;SDS011;66279;42.820;23.374;2023-02-27T17:45:59;5.50;;;4.93;;